Arverne, New York
Current Conditions -  °F | °C
As of 4:51 PM on Thursday 18 Dec 2014 (Local Time) from KJFK Reporting Station
Broken Clouds Broken Clouds  
Wind Chill: 33°   Ceiling: 3900
Heat Index: 41°   Visibility: 10mi
Dew Point: 24°   Wind: 15mph
Humidity: 51%   Direction: 300°WNW
Pressure: 29.97"   Gusts: 23mph
Location:  40.59°N, 73.8°W
Report Text: KJFK 182151Z 30013G20KT 10SM BKN039 BKN250 05/M04 A2997 RMK AO2 PK WND 30028/2122 SLP149 T00501044 $
Loading
Personal Weather Stations






























Interactive Weather Map New forecast layout! Learn more

10-Day Weather Forecast

Advertisements
Track Severe Weather on mobile